sensor_id;sensor_type;location;lat;lon;timestamp;temperature;humidity
21123;DHT22;10719;48.130;11.630;2023-05-29T00:00:33;12.30;99.90
21123;DHT22;10719;48.130;11.630;2023-05-29T00:02:58;12.30;99.90
21123;DHT22;10719;48.130;11.630;2023-05-29T00:05:24;12.20;99.90
21123;DHT22;10719;48.130;11.630;2023-05-29T00:07:50;12.10;99.90
21123;DHT22;10719;48.130;11.630;2023-05-29T00:10:16;12.10;99.90
21123;DHT22;10719;48.130;11.630;2023-05-29T00:12:42;11.90;99.90
21123;DHT22;10719;48.130;11.630;2023-05-29T00:15:09;11.90;99.90
21123;DHT22;10719;48.130;11.630;2023-05-29T00:17:36;11.90;99.90
21123;DHT22;10719;48.130;11.630;2023-05-29T00:20:02;11.90;99.90
21123;DHT22;10719;48.130;11.630;2023-05-29T00:22:37;11.80;99.90
21123;DHT22;10719;48.130;11.630;2023-05-29T00:25:06;11.70;99.90
21123;DHT22;10719;48.130;11.630;2023-05-29T00:27:33;11.70;99.90
21123;DHT22;10719;48.130;11.630;2023-05-29T00:30:02;11.60;99.90
21123;DHT22;10719;48.130;11.630;2023-05-29T00:32:28;11.60;99.90
21123;DHT22;10719;48.130;11.630;2023-05-29T00:34:54;11.60;99.90
21123;DHT22;10719;48.130;11.630;2023-05-29T00:37:21;11.50;99.90
21123;DHT22;10719;48.130;11.630;2023-05-29T00:39:50;11.60;99.90
21123;DHT22;10719;48.130;11.630;2023-05-29T00:42:15;11.50;99.90
21123;DHT22;10719;48.130;11.630;2023-05-29T00:44:41;11.50;99.90
21123;DHT22;10719;48.130;11.630;2023-05-29T00:47:07;11.40;99.90
21123;DHT22;10719;48.130;11.630;2023-05-29T00:49:34;11.50;99.90
21123;DHT22;10719;48.130;11.630;2023-05-29T00:52:01;11.40;99.90
21123;DHT22;10719;48.130;11.630;2023-05-29T00:54:29;11.40;99.90
21123;DHT22;10719;48.130;11.630;2023-05-29T00:56:56;11.30;99.90
21123;DHT22;10719;48.130;11.630;2023-05-29T00:59:23;11.30;99.90
21123;DHT22;10719;48.130;11.630;2023-05-29T01:01:49;11.20;99.90
21123;DHT22;10719;48.130;11.630;2023-05-29T01:04:16;11.20;99.90
21123;DHT22;10719;48.130;11.630;2023-05-29T01:06:42;11.20;99.90
21123;DHT22;10719;48.130;11.630;2023-05-29T01:09:08;11.20;99.90
21123;DHT22;10719;48.130;11.630;2023-05-29T01:17:17;11.10;99.90
21123;DHT22;10719;48.130;11.630;2023-05-29T01:22:41;11.00;99.90
21123;DHT22;10719;48.130;11.630;2023-05-29T01:25:24;11.00;99.90
21123;DHT22;10719;48.130;11.630;2023-05-29T01:27:55;11.00;99.90
21123;DHT22;10719;48.130;11.630;2023-05-29T01:30:28;10.90;99.90
21123;DHT22;10719;48.130;11.630;2023-05-29T01:32:54;10.90;99.90
21123;DHT22;10719;48.130;11.630;2023-05-29T01:35:20;10.80;99.90
21123;DHT22;10719;48.130;11.630;2023-05-29T01:37:45;10.80;99.90
21123;DHT22;10719;48.130;11.630;2023-05-29T01:40:11;10.80;99.90
21123;DHT22;10719;48.130;11.630;2023-05-29T01:42:37;10.70;99.90
21123;DHT22;10719;48.130;11.630;2023-05-29T01:45:03;10.70;99.90
21123;DHT22;10719;48.130;11.630;2023-05-29T01:47:49;10.60;99.90
21123;DHT22;10719;48.130;11.630;2023-05-29T01:50:18;10.60;99.90
21123;DHT22;10719;48.130;11.630;2023-05-29T01:52:44;10.60;99.90
21123;DHT22;10719;48.130;11.630;2023-05-29T01:55:09;10.60;99.90
21123;DHT22;10719;48.130;11.630;2023-05-29T01:57:36;10.60;99.90
21123;DHT22;10719;48.130;11.630;2023-05-29T02:00:03;10.50;99.90
21123;DHT22;10719;48.130;11.630;2023-05-29T02:02:41;10.50;99.90
21123;DHT22;10719;48.130;11.630;2023-05-29T02:05:08;10.50;99.90
21123;DHT22;10719;48.130;11.630;2023-05-29T02:07:34;10.50;99.90
21123;DHT22;10719;48.130;11.630;2023-05-29T02:10:05;10.50;99.90
21123;DHT22;10719;48.130;11.630;2023-05-29T02:12:31;10.40;99.90
21123;DHT22;10719;48.130;11.630;2023-05-29T02:14:56;10.40;99.90
21123;DHT22;10719;48.130;11.630;2023-05-29T02:17:23;10.40;99.90
21123;DHT22;10719;48.130;11.630;2023-05-29T02:19:48;10.40;99.90
21123;DHT22;10719;48.130;11.630;2023-05-29T02:22:14;10.30;99.90
21123;DHT22;10719;48.130;11.630;2023-05-29T02:24:40;10.30;99.90
21123;DHT22;10719;48.130;11.630;2023-05-29T02:27:05;10.30;99.90
21123;DHT22;10719;48.130;11.630;2023-05-29T02:29:32;10.30;99.90
21123;DHT22;10719;48.130;11.630;2023-05-29T02:31:57;10.30;99.90
21123;DHT22;10719;48.130;11.630;2023-05-29T02:34:23;10.20;99.90
21123;DHT22;10719;48.130;11.630;2023-05-29T02:36:50;10.20;99.90
21123;DHT22;10719;48.130;11.630;2023-05-29T02:39:17;10.10;99.90
21123;DHT22;10719;48.130;11.630;2023-05-29T02:41:43;10.10;99.90
21123;DHT22;10719;48.130;11.630;2023-05-29T02:44:08;10.10;99.90
21123;DHT22;10719;48.130;11.630;2023-05-29T02:46:34;10.10;99.90
21123;DHT22;10719;48.130;11.630;2023-05-29T02:48:59;10.00;99.90
21123;DHT22;10719;48.130;11.630;2023-05-29T02:51:25;10.00;99.90
21123;DHT22;10719;48.130;11.630;2023-05-29T02:53:50;10.00;99.90
21123;DHT22;10719;48.130;11.630;2023-05-29T02:56:16;9.90;99.90
21123;DHT22;10719;48.130;11.630;2023-05-29T02:58:42;9.90;99.90
21123;DHT22;10719;48.130;11.630;2023-05-29T03:01:07;9.90;99.90
21123;DHT22;10719;48.130;11.630;2023-05-29T03:03:33;9.90;99.90
21123;DHT22;10719;48.130;11.630;2023-05-29T03:05:59;9.90;99.90
21123;DHT22;10719;48.130;11.630;2023-05-29T03:08:26;9.70;99.90
21123;DHT22;10719;48.130;11.630;2023-05-29T03:10:52;9.80;99.90
21123;DHT22;10719;48.130;11.630;2023-05-29T03:13:18;9.70;99.90
21123;DHT22;10719;48.130;11.630;2023-05-29T03:15:44;9.70;99.90
21123;DHT22;10719;48.130;11.630;2023-05-29T03:18:09;9.80;99.90
21123;DHT22;10719;48.130;11.630;2023-05-29T03:20:35;9.90;99.90
21123;DHT22;10719;48.130;11.630;2023-05-29T03:23:01;9.80;99.90
21123;DHT22;10719;48.130;11.630;2023-05-29T03:25:26;9.80;99.90
21123;DHT22;10719;48.130;11.630;2023-05-29T03:27:52;9.70;99.90
21123;DHT22;10719;48.130;11.630;2023-05-29T03:30:18;9.60;99.90
21123;DHT22;10719;48.130;11.630;2023-05-29T03:32:45;9.60;99.90
21123;DHT22;10719;48.130;11.630;2023-05-29T03:35:11;9.70;99.90
21123;DHT22;10719;48.130;11.630;2023-05-29T03:37:37;9.70;99.90
21123;DHT22;10719;48.130;11.630;2023-05-29T03:40:02;9.60;99.90
21123;DHT22;10719;48.130;11.630;2023-05-29T03:42:30;9.60;99.90
21123;DHT22;10719;48.130;11.630;2023-05-29T03:44:59;9.70;99.90
21123;DHT22;10719;48.130;11.630;2023-05-29T03:47:24;9.70;99.90
21123;DHT22;10719;48.130;11.630;2023-05-29T03:49:50;9.80;99.90
21123;DHT22;10719;48.130;11.630;2023-05-29T03:52:16;9.70;99.90
21123;DHT22;10719;48.130;11.630;2023-05-29T03:54:42;9.70;99.90
21123;DHT22;10719;48.130;11.630;2023-05-29T03:57:07;9.90;99.90
21123;DHT22;10719;48.130;11.630;2023-05-29T03:59:34;9.90;99.90
21123;DHT22;10719;48.130;11.630;2023-05-29T04:02:00;9.80;99.90
21123;DHT22;10719;48.130;11.630;2023-05-29T04:04:25;9.80;99.90
21123;DHT22;10719;48.130;11.630;2023-05-29T04:06:52;9.70;99.90
21123;DHT22;10719;48.130;11.630;2023-05-29T04:09:17;9.80;99.90
21123;DHT22;10719;48.130;11.630;2023-05-29T04:11:43;9.80;99.90
21123;DHT22;10719;48.130;11.630;2023-05-29T04:14:10;9.80;99.90
21123;DHT22;10719;48.130;11.630;2023-05-29T04:16:35;9.80;99.90
21123;DHT22;10719;48.130;11.630;2023-05-29T04:19:01;9.90;99.90
21123;DHT22;10719;48.130;11.630;2023-05-29T04:21:26;9.90;99.90
21123;DHT22;10719;48.130;11.630;2023-05-29T04:23:52;10.00;99.90
21123;DHT22;10719;48.130;11.630;2023-05-29T04:26:20;10.00;99.90
21123;DHT22;10719;48.130;11.630;2023-05-29T04:28:50;10.10;99.90
21123;DHT22;10719;48.130;11.630;2023-05-29T04:31:18;10.10;99.90
21123;DHT22;10719;48.130;11.630;2023-05-29T04:33:43;10.20;99.90
21123;DHT22;10719;48.130;11.630;2023-05-29T04:36:10;10.20;99.90
21123;DHT22;10719;48.130;11.630;2023-05-29T04:38:36;10.30;99.90
21123;DHT22;10719;48.130;11.630;2023-05-29T04:41:02;10.40;99.90
21123;DHT22;10719;48.130;11.630;2023-05-29T04:43:28;10.40;99.90
21123;DHT22;10719;48.130;11.630;2023-05-29T04:45:53;10.50;99.90
21123;DHT22;10719;48.130;11.630;2023-05-29T04:48:19;10.50;99.90
21123;DHT22;10719;48.130;11.630;2023-05-29T04:50:45;10.60;99.90
21123;DHT22;10719;48.130;11.630;2023-05-29T04:53:10;10.60;99.90
21123;DHT22;10719;48.130;11.630;2023-05-29T04:55:36;10.70;99.90
21123;DHT22;10719;48.130;11.630;2023-05-29T04:58:02;10.80;99.90
21123;DHT22;10719;48.130;11.630;2023-05-29T05:00:28;10.90;99.90
21123;DHT22;10719;48.130;11.630;2023-05-29T05:02:53;11.00;99.90
21123;DHT22;10719;48.130;11.630;2023-05-29T05:05:19;11.10;99.90
21123;DHT22;10719;48.130;11.630;2023-05-29T05:07:45;11.10;99.90
21123;DHT22;10719;48.130;11.630;2023-05-29T05:10:11;11.20;99.90
21123;DHT22;10719;48.130;11.630;2023-05-29T05:12:37;11.30;99.90
21123;DHT22;10719;48.130;11.630;2023-05-29T05:15:03;11.40;99.90
21123;DHT22;10719;48.130;11.630;2023-05-29T05:17:29;11.50;99.90
21123;DHT22;10719;48.130;11.630;2023-05-29T05:19:55;11.60;99.90
21123;DHT22;10719;48.130;11.630;2023-05-29T05:22:21;11.70;99.90
21123;DHT22;10719;48.130;11.630;2023-05-29T05:24:47;11.80;99.90
21123;DHT22;10719;48.130;11.630;2023-05-29T05:27:12;12.00;99.90
21123;DHT22;10719;48.130;11.630;2023-05-29T05:29:38;12.00;99.90
21123;DHT22;10719;48.130;11.630;2023-05-29T05:32:04;12.00;99.90
21123;DHT22;10719;48.130;11.630;2023-05-29T05:34:29;12.20;99.90
21123;DHT22;10719;48.130;11.630;2023-05-29T05:36:55;12.20;99.90
21123;DHT22;10719;48.130;11.630;2023-05-29T05:39:21;12.40;99.90
21123;DHT22;10719;48.130;11.630;2023-05-29T05:41:46;12.50;99.90
21123;DHT22;10719;48.130;11.630;2023-05-29T05:44:12;12.60;99.90
21123;DHT22;10719;48.130;11.630;2023-05-29T05:46:37;12.80;99.90
21123;DHT22;10719;48.130;11.630;2023-05-29T05:49:03;12.80;99.90
21123;DHT22;10719;48.130;11.630;2023-05-29T05:51:29;12.80;99.90
21123;DHT22;10719;48.130;11.630;2023-05-29T05:53:54;13.00;99.90
21123;DHT22;10719;48.130;11.630;2023-05-29T05:56:20;13.00;99.90
21123;DHT22;10719;48.130;11.630;2023-05-29T05:58:45;13.20;99.90
21123;DHT22;10719;48.130;11.630;2023-05-29T06:01:11;13.30;99.90
21123;DHT22;10719;48.130;11.630;2023-05-29T06:03:36;13.40;99.90
21123;DHT22;10719;48.130;11.630;2023-05-29T06:06:05;13.50;99.90
21123;DHT22;10719;48.130;11.630;2023-05-29T06:08:31;13.60;99.90
21123;DHT22;10719;48.130;11.630;2023-05-29T06:10:57;13.70;99.90
21123;DHT22;10719;48.130;11.630;2023-05-29T06:13:23;13.80;99.90
21123;DHT22;10719;48.130;11.630;2023-05-29T06:15:48;14.00;99.90
21123;DHT22;10719;48.130;11.630;2023-05-29T06:18:14;14.10;99.90
21123;DHT22;10719;48.130;11.630;2023-05-29T06:20:39;14.30;99.90
21123;DHT22;10719;48.130;11.630;2023-05-29T06:23:05;14.30;99.90
21123;DHT22;10719;48.130;11.630;2023-05-29T06:25:31;14.40;99.90
21123;DHT22;10719;48.130;11.630;2023-05-29T06:28:03;14.50;99.90
21123;DHT22;10719;48.130;11.630;2023-05-29T06:30:31;14.70;99.90
21123;DHT22;10719;48.130;11.630;2023-05-29T06:32:57;14.80;99.90
21123;DHT22;10719;48.130;11.630;2023-05-29T06:35:22;14.70;99.90
21123;DHT22;10719;48.130;11.630;2023-05-29T06:37:48;14.90;99.90
21123;DHT22;10719;48.130;11.630;2023-05-29T06:40:13;15.00;99.90
21123;DHT22;10719;48.130;11.630;2023-05-29T06:42:41;15.10;99.90
21123;DHT22;10719;48.130;11.630;2023-05-29T06:45:07;15.10;99.90
21123;DHT22;10719;48.130;11.630;2023-05-29T06:47:33;15.20;99.90
21123;DHT22;10719;48.130;11.630;2023-05-29T06:49:58;15.20;99.90
21123;DHT22;10719;48.130;11.630;2023-05-29T06:52:24;15.30;99.90
21123;DHT22;10719;48.130;11.630;2023-05-29T06:54:50;15.50;99.90
21123;DHT22;10719;48.130;11.630;2023-05-29T06:57:16;15.60;99.90
21123;DHT22;10719;48.130;11.630;2023-05-29T06:59:41;15.70;99.90
21123;DHT22;10719;48.130;11.630;2023-05-29T07:02:07;15.80;99.90
21123;DHT22;10719;48.130;11.630;2023-05-29T07:04:32;15.90;99.90
21123;DHT22;10719;48.130;11.630;2023-05-29T07:06:58;16.10;99.90
21123;DHT22;10719;48.130;11.630;2023-05-29T07:09:23;16.10;99.90
21123;DHT22;10719;48.130;11.630;2023-05-29T07:11:50;16.30;99.90
21123;DHT22;10719;48.130;11.630;2023-05-29T07:14:16;16.30;99.90
21123;DHT22;10719;48.130;11.630;2023-05-29T07:16:41;16.40;99.90
21123;DHT22;10719;48.130;11.630;2023-05-29T07:19:07;16.50;99.90
21123;DHT22;10719;48.130;11.630;2023-05-29T07:21:33;16.50;99.90
21123;DHT22;10719;48.130;11.630;2023-05-29T07:23:59;16.70;99.90
21123;DHT22;10719;48.130;11.630;2023-05-29T07:26:25;16.80;99.90
21123;DHT22;10719;48.130;11.630;2023-05-29T07:28:50;16.80;99.90
21123;DHT22;10719;48.130;11.630;2023-05-29T07:31:16;16.90;99.90
21123;DHT22;10719;48.130;11.630;2023-05-29T07:33:42;17.00;99.90
21123;DHT22;10719;48.130;11.630;2023-05-29T07:36:07;17.10;99.90
21123;DHT22;10719;48.130;11.630;2023-05-29T07:38:33;17.10;99.90
21123;DHT22;10719;48.130;11.630;2023-05-29T07:40:59;17.20;99.90
21123;DHT22;10719;48.130;11.630;2023-05-29T07:43:24;17.30;99.90
21123;DHT22;10719;48.130;11.630;2023-05-29T07:45:50;17.40;99.90
21123;DHT22;10719;48.130;11.630;2023-05-29T07:48:15;17.40;99.90
21123;DHT22;10719;48.130;11.630;2023-05-29T07:50:41;17.50;99.90
21123;DHT22;10719;48.130;11.630;2023-05-29T07:53:07;17.60;99.90
21123;DHT22;10719;48.130;11.630;2023-05-29T07:55:34;17.80;99.90
21123;DHT22;10719;48.130;11.630;2023-05-29T07:58:00;17.80;99.90
21123;DHT22;10719;48.130;11.630;2023-05-29T08:00:27;18.00;99.90
21123;DHT22;10719;48.130;11.630;2023-05-29T08:02:53;17.90;99.90
21123;DHT22;10719;48.130;11.630;2023-05-29T08:05:19;18.10;99.90
21123;DHT22;10719;48.130;11.630;2023-05-29T08:07:45;18.30;99.90
21123;DHT22;10719;48.130;11.630;2023-05-29T08:10:12;18.30;99.90
21123;DHT22;10719;48.130;11.630;2023-05-29T08:12:37;18.50;99.90
21123;DHT22;10719;48.130;11.630;2023-05-29T08:15:03;18.50;99.90
21123;DHT22;10719;48.130;11.630;2023-05-29T08:17:29;18.70;99.90
21123;DHT22;10719;48.130;11.630;2023-05-29T08:19:55;18.90;99.90
21123;DHT22;10719;48.130;11.630;2023-05-29T08:22:28;19.10;99.90
21123;DHT22;10719;48.130;11.630;2023-05-29T08:24:54;19.20;99.90
21123;DHT22;10719;48.130;11.630;2023-05-29T08:27:20;19.20;99.90
21123;DHT22;10719;48.130;11.630;2023-05-29T08:29:45;19.40;99.90
21123;DHT22;10719;48.130;11.630;2023-05-29T08:32:11;19.70;99.90
21123;DHT22;10719;48.130;11.630;2023-05-29T08:34:37;19.90;99.90
21123;DHT22;10719;48.130;11.630;2023-05-29T08:37:02;20.00;99.90
21123;DHT22;10719;48.130;11.630;2023-05-29T08:39:28;20.10;99.90
21123;DHT22;10719;48.130;11.630;2023-05-29T08:44:22;20.10;99.90
21123;DHT22;10719;48.130;11.630;2023-05-29T08:46:54;20.40;99.90
21123;DHT22;10719;48.130;11.630;2023-05-29T08:49:20;20.30;99.90
21123;DHT22;10719;48.130;11.630;2023-05-29T08:51:49;20.50;99.90
21123;DHT22;10719;48.130;11.630;2023-05-29T08:54:16;20.60;99.90
21123;DHT22;10719;48.130;11.630;2023-05-29T08:56:42;20.70;99.90
21123;DHT22;10719;48.130;11.630;2023-05-29T08:59:08;21.10;99.90
21123;DHT22;10719;48.130;11.630;2023-05-29T09:01:34;21.30;99.90
21123;DHT22;10719;48.130;11.630;2023-05-29T09:04:01;21.30;99.90
21123;DHT22;10719;48.130;11.630;2023-05-29T09:06:29;21.20;99.90
21123;DHT22;10719;48.130;11.630;2023-05-29T09:08:55;21.30;99.90
21123;DHT22;10719;48.130;11.630;2023-05-29T09:11:21;21.60;99.90
21123;DHT22;10719;48.130;11.630;2023-05-29T09:13:47;21.80;99.90
21123;DHT22;10719;48.130;11.630;2023-05-29T09:16:12;21.80;99.90
21123;DHT22;10719;48.130;11.630;2023-05-29T09:18:38;21.80;99.90
21123;DHT22;10719;48.130;11.630;2023-05-29T09:21:07;21.70;99.90
21123;DHT22;10719;48.130;11.630;2023-05-29T09:23:34;21.80;99.90
21123;DHT22;10719;48.130;11.630;2023-05-29T09:26:02;21.70;99.90
21123;DHT22;10719;48.130;11.630;2023-05-29T09:28:30;21.90;99.90
21123;DHT22;10719;48.130;11.630;2023-05-29T09:30:57;21.90;99.90
21123;DHT22;10719;48.130;11.630;2023-05-29T09:33:22;21.90;99.90
21123;DHT22;10719;48.130;11.630;2023-05-29T09:35:50;21.90;99.90
21123;DHT22;10719;48.130;11.630;2023-05-29T09:38:19;22.00;99.90
21123;DHT22;10719;48.130;11.630;2023-05-29T09:40:45;22.40;99.90
21123;DHT22;10719;48.130;11.630;2023-05-29T09:43:14;22.60;99.90
21123;DHT22;10719;48.130;11.630;2023-05-29T09:45:47;22.60;99.90
21123;DHT22;10719;48.130;11.630;2023-05-29T09:48:14;22.70;99.90
21123;DHT22;10719;48.130;11.630;2023-05-29T09:50:40;23.10;99.90
21123;DHT22;10719;48.130;11.630;2023-05-29T09:53:23;23.10;99.90
21123;DHT22;10719;48.130;11.630;2023-05-29T09:55:54;23.30;99.90
21123;DHT22;10719;48.130;11.630;2023-05-29T09:58:23;23.30;99.90
21123;DHT22;10719;48.130;11.630;2023-05-29T10:00:50;23.40;99.90
21123;DHT22;10719;48.130;11.630;2023-05-29T10:03:16;23.60;99.90
21123;DHT22;10719;48.130;11.630;2023-05-29T10:05:47;23.80;99.90
21123;DHT22;10719;48.130;11.630;2023-05-29T10:08:15;23.80;99.90
21123;DHT22;10719;48.130;11.630;2023-05-29T10:10:44;24.00;99.90
21123;DHT22;10719;48.130;11.630;2023-05-29T10:13:12;23.90;99.90
21123;DHT22;10719;48.130;11.630;2023-05-29T10:15:41;23.80;99.90
21123;DHT22;10719;48.130;11.630;2023-05-29T10:18:32;24.00;99.90
21123;DHT22;10719;48.130;11.630;2023-05-29T10:21:00;24.00;99.90
21123;DHT22;10719;48.130;11.630;2023-05-29T10:23:28;24.20;99.90
21123;DHT22;10719;48.130;11.630;2023-05-29T10:26:02;24.30;99.90
21123;DHT22;10719;48.130;11.630;2023-05-29T10:28:30;24.20;99.90
21123;DHT22;10719;48.130;11.630;2023-05-29T10:31:03;24.10;99.90
21123;DHT22;10719;48.130;11.630;2023-05-29T10:36:18;24.60;99.90
21123;DHT22;10719;48.130;11.630;2023-05-29T10:38:48;24.70;99.90
21123;DHT22;10719;48.130;11.630;2023-05-29T10:43:57;24.80;99.90
21123;DHT22;10719;48.130;11.630;2023-05-29T10:49:20;25.30;99.90
21123;DHT22;10719;48.130;11.630;2023-05-29T10:51:46;25.40;99.90
21123;DHT22;10719;48.130;11.630;2023-05-29T10:54:12;24.90;99.90
21123;DHT22;10719;48.130;11.630;2023-05-29T10:56:39;25.50;99.90
21123;DHT22;10719;48.130;11.630;2023-05-29T10:59:07;24.90;99.90
21123;DHT22;10719;48.130;11.630;2023-05-29T11:01:34;24.90;99.90
21123;DHT22;10719;48.130;11.630;2023-05-29T11:06:41;25.20;99.90
21123;DHT22;10719;48.130;11.630;2023-05-29T11:09:29;25.70;99.90
21123;DHT22;10719;48.130;11.630;2023-05-29T11:12:24;26.10;99.90
21123;DHT22;10719;48.130;11.630;2023-05-29T11:15:03;25.80;99.90
21123;DHT22;10719;48.130;11.630;2023-05-29T11:20:09;26.10;99.90
21123;DHT22;10719;48.130;11.630;2023-05-29T11:25:15;26.40;99.90
21123;DHT22;10719;48.130;11.630;2023-05-29T11:27:44;26.80;99.90
21123;DHT22;10719;48.130;11.630;2023-05-29T11:30:10;26.00;99.90
21123;DHT22;10719;48.130;11.630;2023-05-29T11:32:37;26.00;99.90
21123;DHT22;10719;48.130;11.630;2023-05-29T11:35:07;26.30;99.90
21123;DHT22;10719;48.130;11.630;2023-05-29T11:37:35;26.30;99.90
21123;DHT22;10719;48.130;11.630;2023-05-29T11:40:04;26.70;99.90
21123;DHT22;10719;48.130;11.630;2023-05-29T11:42:31;27.20;99.90
21123;DHT22;10719;48.130;11.630;2023-05-29T11:45:19;27.20;99.90
21123;DHT22;10719;48.130;11.630;2023-05-29T11:50:27;27.00;99.90
21123;DHT22;10719;48.130;11.630;2023-05-29T11:52:53;27.70;99.90
21123;DHT22;10719;48.130;11.630;2023-05-29T11:55:20;27.80;99.90
21123;DHT22;10719;48.130;11.630;2023-05-29T11:57:47;28.20;99.90
21123;DHT22;10719;48.130;11.630;2023-05-29T12:00:14;28.70;99.90
21123;DHT22;10719;48.130;11.630;2023-05-29T12:02:40;29.40;99.90
21123;DHT22;10719;48.130;11.630;2023-05-29T12:05:08;29.00;98.70
21123;DHT22;10719;48.130;11.630;2023-05-29T12:07:34;28.90;99.90
21123;DHT22;10719;48.130;11.630;2023-05-29T12:10:29;28.50;99.90
21123;DHT22;10719;48.130;11.630;2023-05-29T12:12:57;29.00;99.90
21123;DHT22;10719;48.130;11.630;2023-05-29T12:15:23;29.70;98.40
21123;DHT22;10719;48.130;11.630;2023-05-29T12:17:50;29.10;98.30
21123;DHT22;10719;48.130;11.630;2023-05-29T12:20:16;30.30;99.80
21123;DHT22;10719;48.130;11.630;2023-05-29T12:22:43;29.90;98.70
21123;DHT22;10719;48.130;11.630;2023-05-29T12:25:13;29.50;96.80
21123;DHT22;10719;48.130;11.630;2023-05-29T12:27:40;29.10;97.10
21123;DHT22;10719;48.130;11.630;2023-05-29T12:32:46;29.20;98.70
21123;DHT22;10719;48.130;11.630;2023-05-29T12:40:30;29.90;96.90
21123;DHT22;10719;48.130;11.630;2023-05-29T12:43:00;29.60;99.00
21123;DHT22;10719;48.130;11.630;2023-05-29T12:45:27;30.00;98.40
21123;DHT22;10719;48.130;11.630;2023-05-29T12:47:55;30.30;96.10
21123;DHT22;10719;48.130;11.630;2023-05-29T12:50:25;31.00;96.90
21123;DHT22;10719;48.130;11.630;2023-05-29T12:52:58;30.80;96.30
21123;DHT22;10719;48.130;11.630;2023-05-29T12:55:25;31.40;97.20
21123;DHT22;10719;48.130;11.630;2023-05-29T12:57:51;31.00;95.40
21123;DHT22;10719;48.130;11.630;2023-05-29T13:00:17;29.80;95.10
21123;DHT22;10719;48.130;11.630;2023-05-29T13:02:44;30.30;96.00
21123;DHT22;10719;48.130;11.630;2023-05-29T13:05:10;31.00;96.90
21123;DHT22;10719;48.130;11.630;2023-05-29T13:07:36;30.10;95.00
21123;DHT22;10719;48.130;11.630;2023-05-29T13:10:02;30.50;95.50
21123;DHT22;10719;48.130;11.630;2023-05-29T13:12:27;30.50;94.70
21123;DHT22;10719;48.130;11.630;2023-05-29T13:14:53;31.20;95.60
21123;DHT22;10719;48.130;11.630;2023-05-29T13:17:21;31.50;95.00
21123;DHT22;10719;48.130;11.630;2023-05-29T13:19:47;30.80;96.80
21123;DHT22;10719;48.130;11.630;2023-05-29T13:22:12;30.80;96.00
21123;DHT22;10719;48.130;11.630;2023-05-29T13:24:38;30.50;97.10
21123;DHT22;10719;48.130;11.630;2023-05-29T13:27:04;31.80;95.80
21123;DHT22;10719;48.130;11.630;2023-05-29T13:29:30;31.40;95.30
21123;DHT22;10719;48.130;11.630;2023-05-29T13:31:56;32.60;94.30
21123;DHT22;10719;48.130;11.630;2023-05-29T13:34:22;31.70;93.90
21123;DHT22;10719;48.130;11.630;2023-05-29T13:36:50;31.20;93.90
21123;DHT22;10719;48.130;11.630;2023-05-29T13:39:16;31.30;93.40
21123;DHT22;10719;48.130;11.630;2023-05-29T13:41:41;31.70;95.70
21123;DHT22;10719;48.130;11.630;2023-05-29T13:44:07;30.80;93.60
21123;DHT22;10719;48.130;11.630;2023-05-29T13:46:33;32.10;94.00
21123;DHT22;10719;48.130;11.630;2023-05-29T13:48:58;33.60;93.50
21123;DHT22;10719;48.130;11.630;2023-05-29T13:51:24;33.30;93.20
21123;DHT22;10719;48.130;11.630;2023-05-29T13:53:49;33.10;92.70
21123;DHT22;10719;48.130;11.630;2023-05-29T13:56:15;32.80;91.50
21123;DHT22;10719;48.130;11.630;2023-05-29T13:58:41;32.20;93.40
21123;DHT22;10719;48.130;11.630;2023-05-29T14:01:06;32.30;91.80
21123;DHT22;10719;48.130;11.630;2023-05-29T14:03:32;30.90;92.70
21123;DHT22;10719;48.130;11.630;2023-05-29T14:05:57;32.10;91.90
21123;DHT22;10719;48.130;11.630;2023-05-29T14:08:23;32.00;93.60
21123;DHT22;10719;48.130;11.630;2023-05-29T14:10:48;32.20;94.20
21123;DHT22;10719;48.130;11.630;2023-05-29T14:13:16;32.50;93.10
21123;DHT22;10719;48.130;11.630;2023-05-29T14:15:41;33.90;91.20
21123;DHT22;10719;48.130;11.630;2023-05-29T14:18:07;33.40;92.10
21123;DHT22;10719;48.130;11.630;2023-05-29T14:20:33;32.40;92.20
21123;DHT22;10719;48.130;11.630;2023-05-29T14:22:59;31.00;92.40
21123;DHT22;10719;48.130;11.630;2023-05-29T14:25:24;31.90;92.60
21123;DHT22;10719;48.130;11.630;2023-05-29T14:27:50;32.70;91.30
21123;DHT22;10719;48.130;11.630;2023-05-29T14:30:17;32.40;91.60
21123;DHT22;10719;48.130;11.630;2023-05-29T14:32:42;32.10;92.00
21123;DHT22;10719;48.130;11.630;2023-05-29T14:35:09;32.60;91.70
21123;DHT22;10719;48.130;11.630;2023-05-29T14:37:35;33.70;90.90
21123;DHT22;10719;48.130;11.630;2023-05-29T14:40:01;33.20;91.60
21123;DHT22;10719;48.130;11.630;2023-05-29T14:42:27;32.70;90.90
21123;DHT22;10719;48.130;11.630;2023-05-29T14:44:53;31.70;92.30
21123;DHT22;10719;48.130;11.630;2023-05-29T14:47:18;32.30;91.90
21123;DHT22;10719;48.130;11.630;2023-05-29T14:49:44;32.20;90.20
21123;DHT22;10719;48.130;11.630;2023-05-29T14:52:10;31.40;90.50
21123;DHT22;10719;48.130;11.630;2023-05-29T14:54:35;31.90;91.60
21123;DHT22;10719;48.130;11.630;2023-05-29T14:57:01;31.50;91.60
21123;DHT22;10719;48.130;11.630;2023-05-29T14:59:27;32.40;91.50
21123;DHT22;10719;48.130;11.630;2023-05-29T15:01:52;32.40;91.30
21123;DHT22;10719;48.130;11.630;2023-05-29T15:04:19;33.30;89.50
21123;DHT22;10719;48.130;11.630;2023-05-29T15:06:45;32.40;90.00
21123;DHT22;10719;48.130;11.630;2023-05-29T15:09:11;31.40;90.40
21123;DHT22;10719;48.130;11.630;2023-05-29T15:11:36;32.70;90.00
21123;DHT22;10719;48.130;11.630;2023-05-29T15:14:02;32.60;90.20
21123;DHT22;10719;48.130;11.630;2023-05-29T15:16:27;33.10;90.50
21123;DHT22;10719;48.130;11.630;2023-05-29T15:18:53;32.00;90.60
21123;DHT22;10719;48.130;11.630;2023-05-29T15:21:19;32.40;91.50
21123;DHT22;10719;48.130;11.630;2023-05-29T15:23:44;31.60;91.10
21123;DHT22;10719;48.130;11.630;2023-05-29T15:26:10;31.90;91.70
21123;DHT22;10719;48.130;11.630;2023-05-29T15:28:35;31.60;89.80
21123;DHT22;10719;48.130;11.630;2023-05-29T15:31:01;30.90;91.00
21123;DHT22;10719;48.130;11.630;2023-05-29T15:33:27;29.80;91.10
21123;DHT22;10719;48.130;11.630;2023-05-29T15:35:53;30.50;92.10
21123;DHT22;10719;48.130;11.630;2023-05-29T15:38:18;31.10;91.20
21123;DHT22;10719;48.130;11.630;2023-05-29T15:40:44;32.40;90.00
21123;DHT22;10719;48.130;11.630;2023-05-29T15:43:10;31.90;90.10
21123;DHT22;10719;48.130;11.630;2023-05-29T15:45:39;30.70;90.40
21123;DHT22;10719;48.130;11.630;2023-05-29T15:48:05;30.80;90.70
21123;DHT22;10719;48.130;11.630;2023-05-29T15:50:30;31.30;91.50
21123;DHT22;10719;48.130;11.630;2023-05-29T15:52:56;29.90;91.60